sensor_id;sensor_type;location;lat;lon;timestamp;P1;durP1;ratioP1;P2;durP2;ratioP2
27013;SDS011;14556;52.222;4.510;2023-10-13T00:01:34;3.47;;;1.70;;
27013;SDS011;14556;52.222;4.510;2023-10-13T00:04:01;5.23;;;1.70;;
27013;SDS011;14556;52.222;4.510;2023-10-13T00:06:33;5.67;;;1.93;;
27013;SDS011;14556;52.222;4.510;2023-10-13T00:08:59;4.67;;;1.80;;
27013;SDS011;14556;52.222;4.510;2023-10-13T00:11:26;2.80;;;1.60;;
27013;SDS011;14556;52.222;4.510;2023-10-13T00:13:53;7.07;;;1.63;;
27013;SDS011;14556;52.222;4.510;2023-10-13T00:16:21;2.53;;;1.20;;
27013;SDS011;14556;52.222;4.510;2023-10-13T00:18:56;4.60;;;1.43;;
27013;SDS011;14556;52.222;4.510;2023-10-13T00:21:26;6.00;;;1.57;;
27013;SDS011;14556;52.222;4.510;2023-10-13T00:24:00;4.70;;;1.43;;
27013;SDS011;14556;52.222;4.510;2023-10-13T00:26:33;4.30;;;1.13;;
27013;SDS011;14556;52.222;4.510;2023-10-13T00:29:03;6.07;;;1.93;;
27013;SDS011;14556;52.222;4.510;2023-10-13T00:31:34;2.20;;;1.20;;
27013;SDS011;14556;52.222;4.510;2023-10-13T00:34:03;3.97;;;1.30;;
27013;SDS011;14556;52.222;4.510;2023-10-13T00:36:42;9.73;;;1.60;;
27013;SDS011;14556;52.222;4.510;2023-10-13T00:39:39;3.70;;;1.30;;
27013;SDS011;14556;52.222;4.510;2023-10-13T00:42:12;6.03;;;1.33;;
27013;SDS011;14556;52.222;4.510;2023-10-13T00:44:54;4.03;;;1.40;;
27013;SDS011;14556;52.222;4.510;2023-10-13T00:47:21;8.67;;;2.13;;
27013;SDS011;14556;52.222;4.510;2023-10-13T00:50:06;2.87;;;1.30;;
27013;SDS011;14556;52.222;4.510;2023-10-13T00:52:37;4.17;;;1.70;;
27013;SDS011;14556;52.222;4.510;2023-10-13T00:55:08;4.17;;;1.20;;
27013;SDS011;14556;52.222;4.510;2023-10-13T00:57:35;6.33;;;1.80;;
27013;SDS011;14556;52.222;4.510;2023-10-13T01:00:07;4.73;;;1.47;;
27013;SDS011;14556;52.222;4.510;2023-10-13T01:02:52;3.93;;;1.30;;
27013;SDS011;14556;52.222;4.510;2023-10-13T01:05:23;5.50;;;1.50;;
27013;SDS011;14556;52.222;4.510;2023-10-13T01:07:49;4.30;;;1.20;;
27013;SDS011;14556;52.222;4.510;2023-10-13T01:10:27;5.40;;;1.50;;
27013;SDS011;14556;52.222;4.510;2023-10-13T01:12:56;6.13;;;1.10;;
27013;SDS011;14556;52.222;4.510;2023-10-13T01:15:23;5.93;;;1.70;;
27013;SDS011;14556;52.222;4.510;2023-10-13T01:18:11;2.30;;;0.97;;
27013;SDS011;14556;52.222;4.510;2023-10-13T01:20:41;3.77;;;1.50;;
27013;SDS011;14556;52.222;4.510;2023-10-13T01:23:22;1.97;;;1.00;;
27013;SDS011;14556;52.222;4.510;2023-10-13T01:25:55;3.17;;;1.43;;
27013;SDS011;14556;52.222;4.510;2023-10-13T01:28:24;4.47;;;1.70;;
27013;SDS011;14556;52.222;4.510;2023-10-13T01:30:51;3.90;;;1.30;;
27013;SDS011;14556;52.222;4.510;2023-10-13T01:33:18;6.63;;;1.47;;
27013;SDS011;14556;52.222;4.510;2023-10-13T01:35:54;3.97;;;1.77;;
27013;SDS011;14556;52.222;4.510;2023-10-13T01:38:23;7.30;;;2.10;;
27013;SDS011;14556;52.222;4.510;2023-10-13T01:40:54;6.63;;;2.13;;
27013;SDS011;14556;52.222;4.510;2023-10-13T01:43:23;7.80;;;3.10;;
27013;SDS011;14556;52.222;4.510;2023-10-13T01:45:50;5.47;;;1.77;;
27013;SDS011;14556;52.222;4.510;2023-10-13T01:48:17;3.00;;;1.90;;
27013;SDS011;14556;52.222;4.510;2023-10-13T01:50:45;2.73;;;2.10;;
27013;SDS011;14556;52.222;4.510;2023-10-13T01:53:46;3.93;;;2.70;;
27013;SDS011;14556;52.222;4.510;2023-10-13T01:56:20;2.93;;;1.87;;
27013;SDS011;14556;52.222;4.510;2023-10-13T01:58:57;4.60;;;2.10;;
27013;SDS011;14556;52.222;4.510;2023-10-13T02:01:23;4.43;;;3.13;;
27013;SDS011;14556;52.222;4.510;2023-10-13T02:03:56;4.40;;;2.27;;
27013;SDS011;14556;52.222;4.510;2023-10-13T02:06:48;4.73;;;2.57;;
27013;SDS011;14556;52.222;4.510;2023-10-13T02:09:17;6.47;;;4.10;;
27013;SDS011;14556;52.222;4.510;2023-10-13T02:12:05;8.10;;;4.50;;
27013;SDS011;14556;52.222;4.510;2023-10-13T02:14:31;6.83;;;3.43;;
27013;SDS011;14556;52.222;4.510;2023-10-13T02:16:59;4.13;;;3.33;;
27013;SDS011;14556;52.222;4.510;2023-10-13T02:19:43;6.63;;;3.50;;
27013;SDS011;14556;52.222;4.510;2023-10-13T02:22:16;6.97;;;4.17;;
27013;SDS011;14556;52.222;4.510;2023-10-13T02:24:59;6.43;;;4.60;;
27013;SDS011;14556;52.222;4.510;2023-10-13T02:27:34;7.80;;;4.17;;
27013;SDS011;14556;52.222;4.510;2023-10-13T02:30:08;6.13;;;4.67;;
27013;SDS011;14556;52.222;4.510;2023-10-13T02:32:40;7.57;;;5.10;;
27013;SDS011;14556;52.222;4.510;2023-10-13T02:35:10;6.57;;;4.00;;
27013;SDS011;14556;52.222;4.510;2023-10-13T02:37:45;8.33;;;5.13;;
27013;SDS011;14556;52.222;4.510;2023-10-13T02:40:21;6.33;;;4.70;;
27013;SDS011;14556;52.222;4.510;2023-10-13T02:42:50;10.07;;;4.43;;
27013;SDS011;14556;52.222;4.510;2023-10-13T02:45:16;9.87;;;5.10;;
27013;SDS011;14556;52.222;4.510;2023-10-13T02:47:48;9.67;;;4.57;;
27013;SDS011;14556;52.222;4.510;2023-10-13T02:50:34;6.57;;;4.67;;
27013;SDS011;14556;52.222;4.510;2023-10-13T02:53:02;9.90;;;5.70;;
27013;SDS011;14556;52.222;4.510;2023-10-13T02:55:28;7.30;;;4.77;;
27013;SDS011;14556;52.222;4.510;2023-10-13T02:57:55;9.53;;;5.33;;
27013;SDS011;14556;52.222;4.510;2023-10-13T03:00:22;10.17;;;5.60;;
27013;SDS011;14556;52.222;4.510;2023-10-13T03:02:49;7.77;;;5.43;;
27013;SDS011;14556;52.222;4.510;2023-10-13T03:05:25;7.97;;;4.83;;
27013;SDS011;14556;52.222;4.510;2023-10-13T03:07:55;8.73;;;5.40;;
27013;SDS011;14556;52.222;4.510;2023-10-13T03:10:22;10.23;;;5.33;;
27013;SDS011;14556;52.222;4.510;2023-10-13T03:12:55;10.60;;;6.03;;
27013;SDS011;14556;52.222;4.510;2023-10-13T03:15:21;8.87;;;5.23;;
27013;SDS011;14556;52.222;4.510;2023-10-13T03:17:56;10.13;;;6.00;;
27013;SDS011;14556;52.222;4.510;2023-10-13T03:20:28;7.10;;;4.93;;
27013;SDS011;14556;52.222;4.510;2023-10-13T03:22:58;10.27;;;6.43;;
27013;SDS011;14556;52.222;4.510;2023-10-13T03:25:25;9.17;;;5.33;;
27013;SDS011;14556;52.222;4.510;2023-10-13T03:27:58;7.70;;;5.60;;
27013;SDS011;14556;52.222;4.510;2023-10-13T03:30:31;10.83;;;6.10;;
27013;SDS011;14556;52.222;4.510;2023-10-13T03:33:06;10.07;;;5.87;;
27013;SDS011;14556;52.222;4.510;2023-10-13T03:35:34;7.17;;;5.23;;
27013;SDS011;14556;52.222;4.510;2023-10-13T03:38:08;8.70;;;5.73;;
27013;SDS011;14556;52.222;4.510;2023-10-13T03:40:50;7.00;;;5.23;;
27013;SDS011;14556;52.222;4.510;2023-10-13T03:43:43;8.30;;;5.00;;
27013;SDS011;14556;52.222;4.510;2023-10-13T03:46:27;7.47;;;5.53;;
27013;SDS011;14556;52.222;4.510;2023-10-13T03:48:56;6.70;;;4.73;;
27013;SDS011;14556;52.222;4.510;2023-10-13T03:51:28;9.70;;;4.90;;
27013;SDS011;14556;52.222;4.510;2023-10-13T03:54:05;6.73;;;4.80;;
27013;SDS011;14556;52.222;4.510;2023-10-13T03:56:38;10.30;;;4.77;;
27013;SDS011;14556;52.222;4.510;2023-10-13T03:59:07;6.97;;;4.50;;
27013;SDS011;14556;52.222;4.510;2023-10-13T04:02:01;7.93;;;4.57;;
27013;SDS011;14556;52.222;4.510;2023-10-13T04:04:32;5.33;;;4.00;;
27013;SDS011;14556;52.222;4.510;2023-10-13T04:07:09;5.27;;;4.27;;
27013;SDS011;14556;52.222;4.510;2023-10-13T04:09:36;8.07;;;3.93;;
27013;SDS011;14556;52.222;4.510;2023-10-13T04:12:04;6.87;;;3.80;;
27013;SDS011;14556;52.222;4.510;2023-10-13T04:17:23;6.97;;;3.23;;
27013;SDS011;14556;52.222;4.510;2023-10-13T04:19:56;4.93;;;3.07;;
27013;SDS011;14556;52.222;4.510;2023-10-13T04:22:44;3.67;;;2.57;;
27013;SDS011;14556;52.222;4.510;2023-10-13T04:25:24;3.47;;;2.73;;
27013;SDS011;14556;52.222;4.510;2023-10-13T04:28:14;4.60;;;3.07;;
27013;SDS011;14556;52.222;4.510;2023-10-13T04:30:45;3.30;;;2.77;;
27013;SDS011;14556;52.222;4.510;2023-10-13T04:33:31;5.20;;;2.73;;
27013;SDS011;14556;52.222;4.510;2023-10-13T04:36:08;4.53;;;2.53;;
27013;SDS011;14556;52.222;4.510;2023-10-13T04:39:07;5.20;;;2.70;;
27013;SDS011;14556;52.222;4.510;2023-10-13T04:41:38;3.87;;;2.83;;
27013;SDS011;14556;52.222;4.510;2023-10-13T04:44:18;4.47;;;3.00;;
27013;SDS011;14556;52.222;4.510;2023-10-13T04:47:04;3.57;;;2.50;;
27013;SDS011;14556;52.222;4.510;2023-10-13T04:49:45;5.67;;;3.07;;
27013;SDS011;14556;52.222;4.510;2023-10-13T04:52:11;2.90;;;2.27;;
27013;SDS011;14556;52.222;4.510;2023-10-13T04:54:39;3.77;;;2.60;;
27013;SDS011;14556;52.222;4.510;2023-10-13T04:57:15;5.53;;;2.90;;
27013;SDS011;14556;52.222;4.510;2023-10-13T05:00:06;3.97;;;2.13;;
27013;SDS011;14556;52.222;4.510;2023-10-13T05:02:41;4.53;;;2.37;;
27013;SDS011;14556;52.222;4.510;2023-10-13T05:05:13;3.63;;;2.70;;
27013;SDS011;14556;52.222;4.510;2023-10-13T05:07:40;3.40;;;2.27;;
27013;SDS011;14556;52.222;4.510;2023-10-13T05:10:30;4.30;;;2.23;;
27013;SDS011;14556;52.222;4.510;2023-10-13T05:13:17;4.80;;;1.90;;
27013;SDS011;14556;52.222;4.510;2023-10-13T05:16:23;3.43;;;2.33;;
27013;SDS011;14556;52.222;4.510;2023-10-13T05:19:09;3.10;;;2.50;;
27013;SDS011;14556;52.222;4.510;2023-10-13T05:21:54;9.50;;;2.70;;
27013;SDS011;14556;52.222;4.510;2023-10-13T05:24:39;8.10;;;2.10;;
27013;SDS011;14556;52.222;4.510;2023-10-13T05:27:24;5.17;;;2.13;;
27013;SDS011;14556;52.222;4.510;2023-10-13T05:30:09;6.90;;;2.93;;
27013;SDS011;14556;52.222;4.510;2023-10-13T05:32:55;7.10;;;2.50;;
27013;SDS011;14556;52.222;4.510;2023-10-13T05:35:40;6.57;;;2.40;;
27013;SDS011;14556;52.222;4.510;2023-10-13T05:38:27;6.27;;;2.93;;
27013;SDS011;14556;52.222;4.510;2023-10-13T05:41:13;6.70;;;2.40;;
27013;SDS011;14556;52.222;4.510;2023-10-13T05:43:58;9.57;;;2.90;;
27013;SDS011;14556;52.222;4.510;2023-10-13T05:46:43;4.60;;;2.70;;
27013;SDS011;14556;52.222;4.510;2023-10-13T05:49:15;8.73;;;2.30;;
27013;SDS011;14556;52.222;4.510;2023-10-13T05:51:42;9.10;;;2.60;;
27013;SDS011;14556;52.222;4.510;2023-10-13T05:54:24;7.20;;;2.60;;
27013;SDS011;14556;52.222;4.510;2023-10-13T05:57:09;7.90;;;3.97;;
27013;SDS011;14556;52.222;4.510;2023-10-13T06:00:02;7.53;;;2.87;;
27013;SDS011;14556;52.222;4.510;2023-10-13T06:02:50;4.70;;;2.50;;
27013;SDS011;14556;52.222;4.510;2023-10-13T06:05:41;5.80;;;2.77;;
27013;SDS011;14556;52.222;4.510;2023-10-13T06:08:26;3.13;;;2.43;;
27013;SDS011;14556;52.222;4.510;2023-10-13T06:11:12;9.67;;;3.37;;
27013;SDS011;14556;52.222;4.510;2023-10-13T06:14:10;8.83;;;3.53;;
27013;SDS011;14556;52.222;4.510;2023-10-13T06:16:57;6.77;;;2.47;;
27013;SDS011;14556;52.222;4.510;2023-10-13T06:19:45;6.63;;;3.23;;
27013;SDS011;14556;52.222;4.510;2023-10-13T06:22:31;7.10;;;2.60;;
27013;SDS011;14556;52.222;4.510;2023-10-13T06:25:15;7.57;;;2.57;;
27013;SDS011;14556;52.222;4.510;2023-10-13T06:28:01;7.77;;;3.03;;
27013;SDS011;14556;52.222;4.510;2023-10-13T06:30:56;5.53;;;2.67;;
27013;SDS011;14556;52.222;4.510;2023-10-13T06:33:23;6.57;;;2.30;;
27013;SDS011;14556;52.222;4.510;2023-10-13T06:35:56;5.77;;;2.70;;
27013;SDS011;14556;52.222;4.510;2023-10-13T06:38:24;6.17;;;2.70;;
27013;SDS011;14556;52.222;4.510;2023-10-13T06:40:53;6.87;;;2.97;;
27013;SDS011;14556;52.222;4.510;2023-10-13T06:43:23;5.27;;;2.67;;
27013;SDS011;14556;52.222;4.510;2023-10-13T06:45:53;8.33;;;2.77;;
27013;SDS011;14556;52.222;4.510;2023-10-13T06:48:33;3.53;;;2.30;;
27013;SDS011;14556;52.222;4.510;2023-10-13T06:51:17;8.00;;;2.93;;
27013;SDS011;14556;52.222;4.510;2023-10-13T06:53:46;6.57;;;2.70;;
27013;SDS011;14556;52.222;4.510;2023-10-13T06:56:15;7.73;;;3.23;;
27013;SDS011;14556;52.222;4.510;2023-10-13T06:59:12;6.13;;;3.17;;
27013;SDS011;14556;52.222;4.510;2023-10-13T07:01:40;7.53;;;3.30;;
27013;SDS011;14556;52.222;4.510;2023-10-13T07:04:09;8.80;;;3.90;;
27013;SDS011;14556;52.222;4.510;2023-10-13T07:06:40;6.80;;;3.70;;
27013;SDS011;14556;52.222;4.510;2023-10-13T07:09:10;8.93;;;4.83;;
27013;SDS011;14556;52.222;4.510;2023-10-13T07:11:54;11.73;;;5.07;;
27013;SDS011;14556;52.222;4.510;2023-10-13T07:14:28;8.37;;;4.37;;
27013;SDS011;14556;52.222;4.510;2023-10-13T07:16:55;8.07;;;4.63;;
27013;SDS011;14556;52.222;4.510;2023-10-13T07:19:25;9.27;;;5.60;;
27013;SDS011;14556;52.222;4.510;2023-10-13T07:21:55;8.13;;;5.17;;
27013;SDS011;14556;52.222;4.510;2023-10-13T07:24:26;16.10;;;6.50;;
27013;SDS011;14556;52.222;4.510;2023-10-13T07:27:02;7.00;;;4.67;;
27013;SDS011;14556;52.222;4.510;2023-10-13T07:29:31;9.90;;;5.43;;
27013;SDS011;14556;52.222;4.510;2023-10-13T07:32:01;13.50;;;5.60;;
27013;SDS011;14556;52.222;4.510;2023-10-13T07:34:30;11.57;;;5.30;;
27013;SDS011;14556;52.222;4.510;2023-10-13T07:37:02;9.97;;;4.83;;
27013;SDS011;14556;52.222;4.510;2023-10-13T07:39:34;8.57;;;4.60;;
27013;SDS011;14556;52.222;4.510;2023-10-13T07:42:02;10.27;;;5.90;;
27013;SDS011;14556;52.222;4.510;2023-10-13T07:44:41;18.73;;;5.13;;
27013;SDS011;14556;52.222;4.510;2023-10-13T07:47:13;7.40;;;4.50;;
27013;SDS011;14556;52.222;4.510;2023-10-13T07:49:40;9.40;;;4.80;;
27013;SDS011;14556;52.222;4.510;2023-10-13T07:52:08;12.80;;;4.70;;
27013;SDS011;14556;52.222;4.510;2023-10-13T07:54:48;9.13;;;4.50;;
27013;SDS011;14556;52.222;4.510;2023-10-13T07:57:22;12.33;;;4.20;;
27013;SDS011;14556;52.222;4.510;2023-10-13T07:59:55;9.50;;;4.33;;
27013;SDS011;14556;52.222;4.510;2023-10-13T08:02:40;10.67;;;4.20;;
27013;SDS011;14556;52.222;4.510;2023-10-13T08:05:18;8.50;;;4.30;;
27013;SDS011;14556;52.222;4.510;2023-10-13T08:07:55;9.23;;;4.13;;
27013;SDS011;14556;52.222;4.510;2023-10-13T08:10:22;8.47;;;4.50;;
27013;SDS011;14556;52.222;4.510;2023-10-13T08:12:56;10.73;;;4.57;;
27013;SDS011;14556;52.222;4.510;2023-10-13T08:15:25;9.40;;;4.10;;
27013;SDS011;14556;52.222;4.510;2023-10-13T08:18:00;10.00;;;4.20;;
27013;SDS011;14556;52.222;4.510;2023-10-13T08:20:31;9.23;;;4.47;;
27013;SDS011;14556;52.222;4.510;2023-10-13T08:23:05;9.20;;;5.13;;
27013;SDS011;14556;52.222;4.510;2023-10-13T08:25:41;8.53;;;4.30;;
27013;SDS011;14556;52.222;4.510;2023-10-13T08:28:26;11.93;;;5.37;;
27013;SDS011;14556;52.222;4.510;2023-10-13T08:31:22;7.77;;;4.50;;
27013;SDS011;14556;52.222;4.510;2023-10-13T08:33:55;10.37;;;4.47;;
27013;SDS011;14556;52.222;4.510;2023-10-13T08:36:32;12.10;;;4.43;;
27013;SDS011;14556;52.222;4.510;2023-10-13T08:39:19;11.63;;;4.57;;
27013;SDS011;14556;52.222;4.510;2023-10-13T08:42:04;7.90;;;3.67;;
27013;SDS011;14556;52.222;4.510;2023-10-13T08:44:43;11.87;;;4.20;;
27013;SDS011;14556;52.222;4.510;2023-10-13T08:47:14;13.57;;;4.47;;
27013;SDS011;14556;52.222;4.510;2023-10-13T08:49:45;11.03;;;3.77;;
27013;SDS011;14556;52.222;4.510;2023-10-13T08:52:17;6.50;;;3.87;;
27013;SDS011;14556;52.222;4.510;2023-10-13T08:55:04;9.10;;;4.47;;
27013;SDS011;14556;52.222;4.510;2023-10-13T08:57:51;7.77;;;3.60;;
27013;SDS011;14556;52.222;4.510;2023-10-13T09:00:20;7.93;;;4.40;;
27013;SDS011;14556;52.222;4.510;2023-10-13T09:03:17;7.70;;;3.70;;
27013;SDS011;14556;52.222;4.510;2023-10-13T09:06:18;6.23;;;4.00;;
27013;SDS011;14556;52.222;4.510;2023-10-13T09:08:47;8.17;;;3.93;;
27013;SDS011;14556;52.222;4.510;2023-10-13T09:11:34;6.80;;;3.90;;
27013;SDS011;14556;52.222;4.510;2023-10-13T09:14:21;10.17;;;3.97;;
27013;SDS011;14556;52.222;4.510;2023-10-13T09:17:04;12.40;;;5.13;;
27013;SDS011;14556;52.222;4.510;2023-10-13T09:19:53;8.73;;;4.10;;
27013;SDS011;14556;52.222;4.510;2023-10-13T09:22:26;9.60;;;3.97;;
27013;SDS011;14556;52.222;4.510;2023-10-13T09:24:54;11.30;;;4.63;;
27013;SDS011;14556;52.222;4.510;2023-10-13T09:27:25;11.23;;;4.10;;
27013;SDS011;14556;52.222;4.510;2023-10-13T09:29:59;13.00;;;4.30;;
27013;SDS011;14556;52.222;4.510;2023-10-13T09:32:45;10.37;;;4.13;;
27013;SDS011;14556;52.222;4.510;2023-10-13T09:35:18;9.17;;;4.43;;
27013;SDS011;14556;52.222;4.510;2023-10-13T09:37:50;13.80;;;4.33;;
27013;SDS011;14556;52.222;4.510;2023-10-13T09:40:17;7.13;;;4.10;;
27013;SDS011;14556;52.222;4.510;2023-10-13T09:43:13;7.73;;;3.70;;
27013;SDS011;14556;52.222;4.510;2023-10-13T09:45:48;11.47;;;4.07;;
27013;SDS011;14556;52.222;4.510;2023-10-13T09:48:54;6.73;;;3.70;;
27013;SDS011;14556;52.222;4.510;2023-10-13T09:51:34;9.67;;;4.33;;
27013;SDS011;14556;52.222;4.510;2023-10-13T09:54:09;8.57;;;3.60;;
27013;SDS011;14556;52.222;4.510;2023-10-13T09:56:50;8.43;;;3.70;;
27013;SDS011;14556;52.222;4.510;2023-10-13T10:00:00;6.87;;;3.40;;
27013;SDS011;14556;52.222;4.510;2023-10-13T10:02:32;6.83;;;3.47;;
27013;SDS011;14556;52.222;4.510;2023-10-13T10:05:02;7.80;;;4.00;;
27013;SDS011;14556;52.222;4.510;2023-10-13T10:08:01;8.30;;;4.43;;
27013;SDS011;14556;52.222;4.510;2023-10-13T10:13:15;12.30;;;4.50;;
27013;SDS011;14556;52.222;4.510;2023-10-13T10:16:09;10.50;;;4.57;;
27013;SDS011;14556;52.222;4.510;2023-10-13T10:18:42;6.83;;;3.87;;
27013;SDS011;14556;52.222;4.510;2023-10-13T10:21:09;7.00;;;4.13;;
27013;SDS011;14556;52.222;4.510;2023-10-13T10:23:36;10.37;;;4.17;;
27013;SDS011;14556;52.222;4.510;2023-10-13T10:26:15;9.77;;;4.70;;
27013;SDS011;14556;52.222;4.510;2023-10-13T10:28:46;9.23;;;4.00;;
27013;SDS011;14556;52.222;4.510;2023-10-13T10:31:16;8.70;;;4.10;;
27013;SDS011;14556;52.222;4.510;2023-10-13T10:33:54;10.47;;;3.73;;
27013;SDS011;14556;52.222;4.510;2023-10-13T10:36:28;10.53;;;4.00;;
27013;SDS011;14556;52.222;4.510;2023-10-13T10:38:59;11.90;;;3.60;;
27013;SDS011;14556;52.222;4.510;2023-10-13T10:41:29;9.37;;;4.23;;
27013;SDS011;14556;52.222;4.510;2023-10-13T10:44:16;5.97;;;3.73;;
27013;SDS011;14556;52.222;4.510;2023-10-13T10:46:43;14.30;;;3.93;;
27013;SDS011;14556;52.222;4.510;2023-10-13T10:49:27;9.20;;;4.13;;
27013;SDS011;14556;52.222;4.510;2023-10-13T10:51:58;9.07;;;4.07;;
27013;SDS011;14556;52.222;4.510;2023-10-13T10:54:27;8.67;;;3.87;;
27013;SDS011;14556;52.222;4.510;2023-10-13T10:57:00;10.23;;;3.90;;
27013;SDS011;14556;52.222;4.510;2023-10-13T10:59:44;7.13;;;4.03;;
27013;SDS011;14556;52.222;4.510;2023-10-13T11:02:11;8.67;;;3.67;;
27013;SDS011;14556;52.222;4.510;2023-10-13T11:04:41;15.67;;;5.00;;
27013;SDS011;14556;52.222;4.510;2023-10-13T11:07:24;6.37;;;3.60;;
27013;SDS011;14556;52.222;4.510;2023-10-13T11:09:50;7.37;;;3.80;;
27013;SDS011;14556;52.222;4.510;2023-10-13T11:12:19;11.00;;;5.47;;
27013;SDS011;14556;52.222;4.510;2023-10-13T11:15:03;9.53;;;4.13;;
27013;SDS011;14556;52.222;4.510;2023-10-13T11:17:35;9.57;;;4.40;;
27013;SDS011;14556;52.222;4.510;2023-10-13T11:20:11;6.53;;;4.20;;
27013;SDS011;14556;52.222;4.510;2023-10-13T11:22:52;9.57;;;4.47;;
27013;SDS011;14556;52.222;4.510;2023-10-13T11:25:22;8.30;;;4.70;;
27013;SDS011;14556;52.222;4.510;2023-10-13T11:27:49;8.13;;;4.27;;
27013;SDS011;14556;52.222;4.510;2023-10-13T11:30:19;12.60;;;4.23;;
27013;SDS011;14556;52.222;4.510;2023-10-13T11:33:04;9.03;;;3.90;;
27013;SDS011;14556;52.222;4.510;2023-10-13T11:35:34;7.10;;;3.93;;
27013;SDS011;14556;52.222;4.510;2023-10-13T11:38:19;8.67;;;3.93;;
27013;SDS011;14556;52.222;4.510;2023-10-13T11:40:59;12.67;;;4.40;;
27013;SDS011;14556;52.222;4.510;2023-10-13T11:43:33;8.33;;;4.13;;
27013;SDS011;14556;52.222;4.510;2023-10-13T11:46:12;7.23;;;3.60;;
27013;SDS011;14556;52.222;4.510;2023-10-13T11:48:43;9.10;;;4.33;;
27013;SDS011;14556;52.222;4.510;2023-10-13T11:51:14;11.97;;;4.07;;
27013;SDS011;14556;52.222;4.510;2023-10-13T11:53:58;6.23;;;3.93;;
27013;SDS011;14556;52.222;4.510;2023-10-13T11:56:24;9.10;;;3.90;;
27013;SDS011;14556;52.222;4.510;2023-10-13T11:58:51;10.07;;;3.80;;
27013;SDS011;14556;52.222;4.510;2023-10-13T12:01:17;10.63;;;4.27;;
27013;SDS011;14556;52.222;4.510;2023-10-13T12:03:45;8.87;;;3.83;;
27013;SDS011;14556;52.222;4.510;2023-10-13T12:06:43;9.03;;;4.10;;
27013;SDS011;14556;52.222;4.510;2023-10-13T12:09:10;9.73;;;4.10;;
27013;SDS011;14556;52.222;4.510;2023-10-13T12:11:49;7.17;;;3.80;;
27013;SDS011;14556;52.222;4.510;2023-10-13T12:14:20;13.33;;;4.00;;
27013;SDS011;14556;52.222;4.510;2023-10-13T12:17:03;6.47;;;3.53;;
27013;SDS011;14556;52.222;4.510;2023-10-13T12:19:31;11.07;;;4.37;;
27013;SDS011;14556;52.222;4.510;2023-10-13T12:21:58;9.23;;;3.67;;
27013;SDS011;14556;52.222;4.510;2023-10-13T12:24:31;7.57;;;4.47;;
27013;SDS011;14556;52.222;4.510;2023-10-13T12:27:06;15.93;;;4.97;;
27013;SDS011;14556;52.222;4.510;2023-10-13T12:29:49;8.33;;;4.10;;
27013;SDS011;14556;52.222;4.510;2023-10-13T12:32:18;9.47;;;3.90;;
27013;SDS011;14556;52.222;4.510;2023-10-13T12:34:51;12.77;;;4.37;;
27013;SDS011;14556;52.222;4.510;2023-10-13T12:37:28;7.27;;;3.77;;
27013;SDS011;14556;52.222;4.510;2023-10-13T12:40:13;12.33;;;4.10;;
27013;SDS011;14556;52.222;4.510;2023-10-13T12:42:59;13.90;;;4.47;;
27013;SDS011;14556;52.222;4.510;2023-10-13T12:45:44;14.67;;;4.20;;
27013;SDS011;14556;52.222;4.510;2023-10-13T12:48:30;8.87;;;4.00;;
27013;SDS011;14556;52.222;4.510;2023-10-13T12:51:15;13.97;;;4.20;;
27013;SDS011;14556;52.222;4.510;2023-10-13T12:53:57;9.50;;;4.40;;
27013;SDS011;14556;52.222;4.510;2023-10-13T12:56:42;7.80;;;3.63;;
27013;SDS011;14556;52.222;4.510;2023-10-13T12:59:09;12.13;;;4.17;;
27013;SDS011;14556;52.222;4.510;2023-10-13T13:01:40;8.93;;;3.83;;
27013;SDS011;14556;52.222;4.510;2023-10-13T13:04:10;8.53;;;3.77;;
27013;SDS011;14556;52.222;4.510;2023-10-13T13:06:45;8.73;;;3.80;;
27013;SDS011;14556;52.222;4.510;2023-10-13T13:09:11;8.30;;;4.17;;
27013;SDS011;14556;52.222;4.510;2023-10-13T13:11:38;16.67;;;4.50;;
27013;SDS011;14556;52.222;4.510;2023-10-13T13:14:06;11.97;;;4.30;;
27013;SDS011;14556;52.222;4.510;2023-10-13T13:16:36;7.87;;;3.83;;
27013;SDS011;14556;52.222;4.510;2023-10-13T13:19:05;9.03;;;4.17;;
27013;SDS011;14556;52.222;4.510;2023-10-13T13:21:37;12.00;;;4.40;;
27013;SDS011;14556;52.222;4.510;2023-10-13T13:24:03;10.40;;;3.47;;
27013;SDS011;14556;52.222;4.510;2023-10-13T13:26:31;11.83;;;3.97;;
27013;SDS011;14556;52.222;4.510;2023-10-13T13:28:59;8.63;;;3.77;;
27013;SDS011;14556;52.222;4.510;2023-10-13T13:31:26;9.10;;;3.80;;
27013;SDS011;14556;52.222;4.510;2023-10-13T13:33:55;13.13;;;3.63;;
27013;SDS011;14556;52.222;4.510;2023-10-13T13:36:22;9.47;;;3.77;;
27013;SDS011;14556;52.222;4.510;2023-10-13T13:38:49;8.50;;;4.47;;
27013;SDS011;14556;52.222;4.510;2023-10-13T13:41:17;8.37;;;3.97;;
27013;SDS011;14556;52.222;4.510;2023-10-13T13:43:44;8.50;;;3.60;;
27013;SDS011;14556;52.222;4.510;2023-10-13T13:46:17;13.00;;;3.90;;
27013;SDS011;14556;52.222;4.510;2023-10-13T13:48:44;7.60;;;3.53;;
27013;SDS011;14556;52.222;4.510;2023-10-13T13:51:14;15.43;;;4.33;;
27013;SDS011;14556;52.222;4.510;2023-10-13T13:53:42;11.37;;;3.97;;
27013;SDS011;14556;52.222;4.510;2023-10-13T13:56:12;8.63;;;3.43;;
27013;SDS011;14556;52.222;4.510;2023-10-13T13:58:46;8.97;;;3.50;;
27013;SDS011;14556;52.222;4.510;2023-10-13T14:01:13;13.00;;;4.47;;
27013;SDS011;14556;52.222;4.510;2023-10-13T14:03:52;9.10;;;4.03;;
27013;SDS011;14556;52.222;4.510;2023-10-13T14:06:23;7.23;;;3.40;;
27013;SDS011;14556;52.222;4.510;2023-10-13T14:08:51;8.40;;;3.43;;
27013;SDS011;14556;52.222;4.510;2023-10-13T14:11:22;12.40;;;4.20;;
27013;SDS011;14556;52.222;4.510;2023-10-13T14:14:10;8.03;;;3.60;;
27013;SDS011;14556;52.222;4.510;2023-10-13T14:16:43;9.47;;;4.00;;
27013;SDS011;14556;52.222;4.510;2023-10-13T14:19:18;11.20;;;4.07;;
27013;SDS011;14556;52.222;4.510;2023-10-13T14:24:24;12.13;;;3.90;;
27013;SDS011;14556;52.222;4.510;2023-10-13T14:27:00;13.50;;;4.30;;
27013;SDS011;14556;52.222;4.510;2023-10-13T14:29:44;10.10;;;3.90;;
27013;SDS011;14556;52.222;4.510;2023-10-13T14:32:12;11.77;;;3.47;;
27013;SDS011;14556;52.222;4.510;2023-10-13T14:34:43;11.20;;;3.03;;
27013;SDS011;14556;52.222;4.510;2023-10-13T14:37:10;11.37;;;3.90;;
27013;SDS011;14556;52.222;4.510;2023-10-13T14:39:40;15.63;;;3.77;;
27013;SDS011;14556;52.222;4.510;2023-10-13T14:42:06;13.90;;;4.50;;
27013;SDS011;14556;52.222;4.510;2023-10-13T14:44:33;9.00;;;3.33;;
27013;SDS011;14556;52.222;4.510;2023-10-13T14:47:03;10.80;;;3.60;;
27013;SDS011;14556;52.222;4.510;2023-10-13T14:49:32;13.90;;;3.20;;
27013;SDS011;14556;52.222;4.510;2023-10-13T14:51:58;10.03;;;3.20;;
27013;SDS011;14556;52.222;4.510;2023-10-13T14:54:26;17.40;;;4.43;;
27013;SDS011;14556;52.222;4.510;2023-10-13T14:57:01;7.57;;;2.50;;
27013;SDS011;14556;52.222;4.510;2023-10-13T14:59:30;14.50;;;3.27;;
27013;SDS011;14556;52.222;4.510;2023-10-13T15:02:00;10.33;;;2.77;;
27013;SDS011;14556;52.222;4.510;2023-10-13T15:04:28;12.20;;;3.37;;
27013;SDS011;14556;52.222;4.510;2023-10-13T15:06:55;9.07;;;3.10;;
27013;SDS011;14556;52.222;4.510;2023-10-13T15:09:22;10.13;;;3.00;;
27013;SDS011;14556;52.222;4.510;2023-10-13T15:11:51;11.87;;;2.47;;
27013;SDS011;14556;52.222;4.510;2023-10-13T15:14:21;11.27;;;2.90;;
27013;SDS011;14556;52.222;4.510;2023-10-13T15:16:49;6.73;;;2.33;;
27013;SDS011;14556;52.222;4.510;2023-10-13T15:19:16;6.27;;;2.30;;
27013;SDS011;14556;52.222;4.510;2023-10-13T15:21:43;6.60;;;2.13;;
27013;SDS011;14556;52.222;4.510;2023-10-13T15:24:15;9.77;;;2.70;;
27013;SDS011;14556;52.222;4.510;2023-10-13T15:26:46;7.77;;;3.20;;
27013;SDS011;14556;52.222;4.510;2023-10-13T15:29:16;8.47;;;3.00;;
27013;SDS011;14556;52.222;4.510;2023-10-13T15:31:43;8.27;;;3.90;;
27013;SDS011;14556;52.222;4.510;2023-10-13T15:34:20;10.80;;;3.70;;
27013;SDS011;14556;52.222;4.510;2023-10-13T15:36:49;8.60;;;4.00;;
27013;SDS011;14556;52.222;4.510;2023-10-13T15:39:18;10.87;;;4.33;;